Time;durP1;ratioP1;P1;durP2;ratioP2;P2;SDS_P1;SDS_P2;PMS_P1;PMS_P2;Temp;Humidity;BMP_temperature;BMP_pressure;BME280_temperature;BME280_humidity;BME280_pressure;Samples;Min_cycle;Max_cycle;Signal;HPM_P1;HPM_P2
2022/08/08 00:00:10;;;;;;;5.32;2.22;;;;;;;;;;5038415;28;20025;-70
2022/08/08 00:02:42;;;;;;;3.83;2.45;;;;;;;;;;5038499;28;20032;-70
2022/08/08 00:05:11;;;;;;;7.05;2.40;;;;;;;;;;5056633;28;20082;-70
2022/08/08 00:07:59;;;;;;;6.30;2.90;;;;;;;;;;5056906;28;20541;-70
2022/08/08 00:10:32;;;;;;;4.35;2.50;;;;;;;;;;5056792;28;20109;-70
2022/08/08 00:13:19;;;;;;;4.88;2.60;;;;;;;;;;5056477;28;20036;-70
2022/08/08 00:15:55;;;;;;;4.80;2.50;;;;;;;;;;5054702;28;20500;-70
2022/08/08 00:18:28;;;;;;;4.57;2.65;;;;;;;;;;5056687;28;20503;-70
2022/08/08 00:20:56;;;;;;;8.18;3.08;;;;;;;;;;5056060;28;20029;-70
2022/08/08 00:23:45;;;;;;;9.52;2.60;;;;;;;;;;5055957;28;20025;-69
2022/08/08 00:26:14;;;;;;;7.60;2.60;;;;;;;;;;5050319;28;20037;-70
2022/08/08 00:28:49;;;;;;;5.30;2.95;;;;;;;;;;5056151;28;20029;-70
2022/08/08 00:31:17;;;;;;;4.72;2.85;;;;;;;;;;5056340;28;20497;-70
2022/08/08 00:33:48;;;;;;;5.43;2.60;;;;;;;;;;5055763;28;20401;-70
2022/08/08 00:36:13;;;;;;;;;;;;;;;;;;5056165;28;20504;-69
2022/08/08 00:38:58;;;;;;;4.53;2.67;;;;;;;;;;5055703;28;19904;-70
2022/08/08 00:41:33;;;;;;;6.40;2.58;;;;;;;;;;5056168;28;20025;-69
2022/08/08 00:44:02;;;;;;;5.57;2.72;;;;;;;;;;5055662;28;20024;-69
2022/08/08 00:46:29;;;;;;;5.38;2.72;;;;;;;;;;5056096;28;20072;-70
2022/08/08 00:49:07;;;;;;;5.70;3.03;;;;;;;;;;5038220;28;20427;-70
2022/08/08 00:51:46;;;;;;;6.18;2.78;;;;;;;;;;5055670;28;20505;-69
2022/08/08 00:54:15;;;;;;;6.57;2.72;;;;;;;;;;5055883;28;20127;-70
2022/08/08 00:57:00;;;;;;;5.95;2.80;;;;;;;;;;5055542;28;20489;-70
2022/08/08 00:59:28;;;;;;;8.82;2.80;;;;;;;;;;5055276;28;20025;-69
2022/08/08 01:02:04;;;;;;;4.28;3.03;;;;;;;;;;5055148;28;20397;-69
2022/08/08 01:04:48;;;;;;;4.80;2.60;;;;;;;;;;5054758;28;20021;-69
2022/08/08 01:07:33;;;;;;;5.50;2.65;;;;;;;;;;5055179;28;20029;-70
2022/08/08 01:10:30;;;;;;;7.47;3.13;;;;;;;;;;5055473;28;20056;-69
2022/08/08 01:12:59;;;;;;;5.03;2.70;;;;;;;;;;5055383;28;20021;-70
2022/08/08 01:15:28;;;;;;;4.75;2.67;;;;;;;;;;5054955;28;20035;-69
2022/08/08 01:18:14;;;;;;;4.30;2.45;;;;;;;;;;5037096;28;20025;-69
2022/08/08 01:21:02;;;;;;;6.53;3.17;;;;;;;;;;5047546;28;20045;-69
2022/08/08 01:23:31;;;;;;;6.13;2.70;;;;;;;;;;5055469;28;20018;-69
2022/08/08 01:26:03;;;;;;;4.05;2.72;;;;;;;;;;5055318;28;20052;-69
2022/08/08 01:28:32;;;;;;;8.40;3.15;;;;;;;;;;5054783;28;20032;-69
2022/08/08 01:30:58;;;;;;;4.72;2.90;;;;;;;;;;5054689;28;20033;-69
2022/08/08 01:33:33;;;;;;;6.43;2.50;;;;;;;;;;5054626;28;20028;-69
2022/08/08 01:36:18;;;;;;;7.40;2.83;;;;;;;;;;5054528;28;20029;-69
2022/08/08 01:39:03;;;;;;;4.72;2.80;;;;;;;;;;5054589;28;20021;-69
2022/08/08 01:41:31;;;;;;;6.25;3.05;;;;;;;;;;5055081;28;20029;-70
2022/08/08 01:44:16;;;;;;;6.70;2.88;;;;;;;;;;5054764;28;20420;-69
2022/08/08 01:47:01;;;;;;;4.35;2.92;;;;;;;;;;5054430;28;20086;-69
2022/08/08 01:49:43;;;;;;;6.97;3.05;;;;;;;;;;5036511;28;20060;-69
2022/08/08 01:52:39;;;;;;;6.93;3.45;;;;;;;;;;5054328;28;20027;-69
2022/08/08 01:55:15;;;;;;;6.90;3.35;;;;;;;;;;5001581;28;20107;-69
2022/08/08 01:57:41;;;;;;;5.63;3.13;;;;;;;;;;5054795;28;20028;-70
2022/08/08 02:00:16;;;;;;;5.30;2.97;;;;;;;;;;5054100;28;20025;-69
2022/08/08 02:02:58;;;;;;;4.65;2.70;;;;;;;;;;5054122;28;20439;-69
2022/08/08 02:05:27;;;;;;;7.70;3.20;;;;;;;;;;5054402;28;20155;-69
2022/08/08 02:07:57;;;;;;;5.43;3.30;;;;;;;;;;5054029;28;20029;-69
2022/08/08 02:10:41;;;;;;;6.13;3.40;;;;;;;;;;5054502;28;20152;-69
2022/08/08 02:13:15;;;;;;;5.75;3.30;;;;;;;;;;5054188;28;20033;-69
2022/08/08 02:15:55;;;;;;;7.43;3.28;;;;;;;;;;5035115;28;20513;-69
2022/08/08 02:18:37;;;;;;;5.97;3.17;;;;;;;;;;5035716;28;20481;-70
2022/08/08 02:24:08;;;;;;;6.00;3.50;;;;;;;;;;5053764;28;20547;-69
2022/08/08 02:26:51;;;;;;;5.68;2.88;;;;;;;;;;5053687;28;20025;-69
2022/08/08 02:29:23;;;;;;;7.72;3.47;;;;;;;;;;5053905;28;20082;-69
2022/08/08 02:31:55;;;;;;;4.80;2.75;;;;;;;;;;5053885;28;20028;-69
2022/08/08 02:34:40;;;;;;;9.88;3.47;;;;;;;;;;5053848;28;20036;-69
2022/08/08 02:37:21;;;;;;;8.60;3.33;;;;;;;;;;5054019;28;20047;-69
2022/08/08 02:39:50;;;;;;;6.20;3.25;;;;;;;;;;5053425;28;20032;-69
2022/08/08 02:42:31;;;;;;;5.38;3.58;;;;;;;;;;5053450;28;20104;-69
2022/08/08 02:44:57;;;;;;;7.13;3.35;;;;;;;;;;5053926;28;20020;-69
2022/08/08 02:47:38;;;;;;;6.15;3.10;;;;;;;;;;5035475;28;20064;-69
2022/08/08 02:50:16;;;;;;;8.57;3.20;;;;;;;;;;5053882;28;20032;-69
2022/08/08 02:53:04;;;;;;;4.93;2.90;;;;;;;;;;5053530;28;20021;-69
2022/08/08 02:55:36;;;;;;;5.43;3.10;;;;;;;;;;5054044;28;20108;-69
2022/08/08 02:58:11;;;;;;;7.20;3.03;;;;;;;;;;5053732;28;20056;-69
2022/08/08 03:00:56;;;;;;;5.65;3.30;;;;;;;;;;5053118;28;20051;-69
2022/08/08 03:03:42;;;;;;;5.45;3.15;;;;;;;;;;5053375;28;20032;-69
2022/08/08 03:06:11;;;;;;;4.70;2.90;;;;;;;;;;5053129;28;20023;-69
2022/08/08 03:08:46;;;;;;;6.70;2.90;;;;;;;;;;5053368;28;20438;-69
2022/08/08 03:11:27;;;;;;;5.88;3.28;;;;;;;;;;5053052;28;20029;-69
2022/08/08 03:14:12;;;;;;;6.07;3.03;;;;;;;;;;5053347;28;20033;-69
2022/08/08 03:16:51;;;;;;;6.13;3.30;;;;;;;;;;5053041;28;20052;-69
2022/08/08 03:19:17;;;;;;;5.35;3.15;;;;;;;;;;5053590;28;20451;-69
2022/08/08 03:21:43;;;;;;;7.32;3.40;;;;;;;;;;5053214;28;20028;-69
2022/08/08 03:24:09;;;;;;;6.70;3.50;;;;;;;;;;5052977;28;20021;-69
2022/08/08 03:26:43;;;;;;;4.78;3.10;;;;;;;;;;5052951;28;20017;-69
2022/08/08 03:29:12;;;;;;;5.78;3.30;;;;;;;;;;5057199;28;20373;-69
2022/08/08 03:34:22;;;;;;;6.22;3.50;;;;;;;;;;5057291;28;20071;-69
2022/08/08 03:36:48;;;;;;;7.18;3.50;;;;;;;;;;5057331;28;20051;-69
2022/08/08 03:39:15;;;;;;;5.82;3.30;;;;;;;;;;5056889;28;20022;-69
2022/08/08 03:41:41;;;;;;;6.85;3.10;;;;;;;;;;5056775;28;20410;-69
2022/08/08 03:44:07;;;;;;;4.38;3.10;;;;;;;;;;5056723;28;20025;-69
2022/08/08 03:46:46;;;;;;;9.65;3.80;;;;;;;;;;5038812;28;20493;-69
2022/08/08 03:49:17;;;;;;;5.63;3.72;;;;;;;;;;5057181;28;20028;-69
2022/08/08 03:51:43;;;;;;;6.20;3.05;;;;;;;;;;5056633;28;20032;-69
2022/08/08 03:54:09;;;;;;;5.43;3.45;;;;;;;;;;5057052;28;20563;-69
2022/08/08 03:56:35;;;;;;;8.20;3.60;;;;;;;;;;5056431;28;20112;-69
2022/08/08 03:59:01;;;;;;;8.45;3.47;;;;;;;;;;5056748;28;20071;-69
2022/08/08 04:01:38;;;;;;;5.75;3.20;;;;;;;;;;5056465;28;20028;-69
2022/08/08 04:04:04;;;;;;;6.38;3.72;;;;;;;;;;5056677;28;20078;-69
2022/08/08 04:06:30;;;;;;;5.07;2.88;;;;;;;;;;5056354;28;20021;-69
2022/08/08 04:08:57;;;;;;;5.15;3.00;;;;;;;;;;5038372;28;20481;-70
2022/08/08 04:11:23;;;;;;;7.30;3.13;;;;;;;;;;5056219;28;20104;-69
2022/08/08 04:13:49;;;;;;;8.68;3.40;;;;;;;;;;5056752;28;20112;-69
2022/08/08 04:16:15;;;;;;;6.00;3.13;;;;;;;;;;5056124;28;20021;-69
2022/08/08 04:18:41;;;;;;;6.75;3.13;;;;;;;;;;5056120;28;20036;-69
2022/08/08 04:21:07;;;;;;;5.97;3.85;;;;;;;;;;5056355;28;20079;-69
2022/08/08 04:23:33;;;;;;;6.22;3.20;;;;;;;;;;5056307;28;20029;-69
2022/08/08 04:25:59;;;;;;;6.60;3.92;;;;;;;;;;5055948;28;20025;-69
2022/08/08 04:28:26;;;;;;;4.90;2.83;;;;;;;;;;5055906;28;20025;-69
2022/08/08 04:30:52;;;;;;;7.90;3.30;;;;;;;;;;5037968;28;20032;-69
2022/08/08 04:33:18;;;;;;;9.93;3.53;;;;;;;;;;5037998;28;20033;-69
2022/08/08 04:35:44;;;;;;;6.43;3.83;;;;;;;;;;5055971;28;20033;-69
2022/08/08 04:38:10;;;;;;;8.82;4.05;;;;;;;;;;5056019;28;20420;-69
2022/08/08 04:40:37;;;;;;;9.02;3.67;;;;;;;;;;5054840;28;20024;-69
2022/08/08 04:43:03;;;;;;;6.80;4.03;;;;;;;;;;5055657;28;20040;-69
2022/08/08 04:45:29;;;;;;;8.52;4.38;;;;;;;;;;5055646;28;20049;-69
2022/08/08 04:47:58;;;;;;;7.03;3.70;;;;;;;;;;5055612;28;20123;-69
2022/08/08 04:50:25;;;;;;;10.05;4.30;;;;;;;;;;5055490;28;20026;-69
2022/08/08 04:52:51;;;;;;;8.50;4.43;;;;;;;;;;5055484;28;20104;-69
2022/08/08 04:55:17;;;;;;;8.52;3.80;;;;;;;;;;5055453;28;20037;-69
2022/08/08 04:57:44;;;;;;;5.78;3.90;;;;;;;;;;5055644;28;20032;-69
2022/08/08 05:00:10;;;;;;;6.57;4.05;;;;;;;;;;5055273;28;20576;-70
2022/08/08 05:02:36;;;;;;;8.10;4.07;;;;;;;;;;5055309;28;20499;-69
2022/08/08 05:05:03;;;;;;;6.25;3.70;;;;;;;;;;5055235;28;20110;-69
2022/08/08 05:07:29;;;;;;;9.35;4.15;;;;;;;;;;5055199;28;20033;-69
2022/08/08 05:09:55;;;;;;;8.75;4.32;;;;;;;;;;5055474;28;20021;-69
2022/08/08 05:12:21;;;;;;;9.20;4.75;;;;;;;;;;5055367;28;20060;-69
2022/08/08 05:14:47;;;;;;;7.53;4.38;;;;;;;;;;5054937;28;20051;-69
2022/08/08 05:17:13;;;;;;;8.35;4.10;;;;;;;;;;5055544;28;20539;-69
2022/08/08 05:19:39;;;;;;;7.43;4.18;;;;;;;;;;5054960;28;20021;-69
2022/08/08 05:22:06;;;;;;;9.00;3.67;;;;;;;;;;5055214;28;20044;-69
2022/08/08 05:24:32;;;;;;;8.00;3.42;;;;;;;;;;5055450;28;20047;-69
2022/08/08 05:26:58;;;;;;;7.70;3.90;;;;;;;;;;5055114;28;20492;-69
2022/08/08 05:29:25;;;;;;;7.10;4.15;;;;;;;;;;5054746;28;20373;-69
2022/08/08 05:31:51;;;;;;;7.40;3.97;;;;;;;;;;5054762;28;20025;-69
2022/08/08 05:34:18;;;;;;;7.75;3.90;;;;;;;;;;5054930;28;20021;-69
2022/08/08 05:36:47;;;;;;;8.20;4.15;;;;;;;;;;5054831;28;20033;-69
2022/08/08 05:39:13;;;;;;;8.63;3.85;;;;;;;;;;5054571;28;20021;-69
2022/08/08 05:41:40;;;;;;;8.82;4.40;;;;;;;;;;5054550;28;20021;-69
2022/08/08 05:44:11;;;;;;;6.95;3.97;;;;;;;;;;5036623;28;20493;-69
2022/08/08 05:46:37;;;;;;;8.75;4.60;;;;;;;;;;5054767;28;20090;-69
2022/08/08 05:49:03;;;;;;;6.80;3.65;;;;;;;;;;5054674;28;20104;-69
2022/08/08 05:51:30;;;;;;;7.78;4.00;;;;;;;;;;5054356;28;20075;-69
2022/08/08 05:53:56;;;;;;;9.93;3.92;;;;;;;;;;5054106;28;20417;-69
2022/08/08 05:56:22;;;;;;;6.88;3.90;;;;;;;;;;5054669;28;20100;-69
2022/08/08 05:58:52;;;;;;;10.10;4.45;;;;;;;;;;5054228;28;20045;-69
2022/08/08 06:01:18;;;;;;;7.87;4.20;;;;;;;;;;5054087;28;20021;-69
2022/08/08 06:03:46;;;;;;;7.47;3.70;;;;;;;;;;5054380;28;20366;-69
2022/08/08 06:06:12;;;;;;;6.50;3.80;;;;;;;;;;5054037;28;20029;-69
2022/08/08 06:08:50;;;;;;;8.10;3.67;;;;;;;;;;5054033;28;20025;-69
2022/08/08 06:11:18;;;;;;;7.45;3.42;;;;;;;;;;5054306;28;20388;-70
2022/08/08 06:13:45;;;;;;;9.68;3.75;;;;;;;;;;5053935;28;20029;-70
2022/08/08 06:16:12;;;;;;;11.15;3.58;;;;;;;;;;5054097;28;20157;-70
2022/08/08 06:18:39;;;;;;;6.32;2.88;;;;;;;;;;5035971;28;20032;-70
2022/08/08 06:21:06;;;;;;;5.88;3.42;;;;;;;;;;5054086;28;20032;-70
2022/08/08 06:23:32;;;;;;;4.40;3.13;;;;;;;;;;5053760;28;20029;-70
2022/08/08 06:26:05;;;;;;;7.95;3.20;;;;;;;;;;5053743;28;20513;-70
2022/08/08 06:28:37;;;;;;;7.68;3.50;;;;;;;;;;5053955;28;20029;-70
2022/08/08 06:31:05;;;;;;;6.90;3.33;;;;;;;;;;5036099;28;20028;-71
2022/08/08 06:33:41;;;;;;;7.20;3.80;;;;;;;;;;5053629;28;20025;-71
2022/08/08 06:36:09;;;;;;;7.35;3.80;;;;;;;;;;5053444;28;20036;-71
2022/08/08 06:38:36;;;;;;;7.45;3.92;;;;;;;;;;5053443;28;20528;-71
2022/08/08 06:41:07;;;;;;;6.85;3.58;;;;;;;;;;5053528;28;20017;-71
2022/08/08 06:43:36;;;;;;;8.18;3.60;;;;;;;;;;5053451;28;20021;-71
2022/08/08 06:46:03;;;;;;;6.10;3.30;;;;;;;;;;5053716;28;20082;-71
2022/08/08 06:48:29;;;;;;;5.65;3.35;;;;;;;;;;5053353;28;20447;-71
2022/08/08 06:50:57;;;;;;;5.40;3.90;;;;;;;;;;5053298;28;20541;-71
2022/08/08 06:53:25;;;;;;;5.60;3.28;;;;;;;;;;5053114;28;20032;-74
2022/08/08 06:55:51;;;;;;;5.25;2.90;;;;;;;;;;5053982;28;20074;-73
2022/08/08 06:58:17;;;;;;;13.57;3.60;;;;;;;;;;5053507;28;20032;-73
2022/08/08 07:00:45;;;;;;;4.68;2.90;;;;;;;;;;5053189;28;20017;-72
2022/08/08 07:03:15;;;;;;;6.70;3.00;;;;;;;;;;5053167;28;20032;-72
2022/08/08 07:05:42;;;;;;;6.13;3.22;;;;;;;;;;5052172;28;20473;-72
2022/08/08 07:08:13;;;;;;;7.80;3.58;;;;;;;;;;5053115;28;20029;-72
2022/08/08 07:10:45;;;;;;;5.60;2.85;;;;;;;;;;5053410;28;20032;-72
2022/08/08 07:13:13;;;;;;;5.97;3.47;;;;;;;;;;5053640;28;20091;-72
2022/08/08 07:15:51;;;;;;;6.90;3.05;;;;;;;;;;5053063;28;20029;-72
2022/08/08 07:18:25;;;;;;;11.57;2.85;;;;;;;;;;5053626;28;20373;-72
2022/08/08 07:20:53;;;;;;;5.25;2.72;;;;;;;;;;5034944;28;20048;-71
2022/08/08 07:23:38;;;;;;;5.43;2.97;;;;;;;;;;5053055;28;20025;-72
2022/08/08 07:26:04;;;;;;;6.07;3.05;;;;;;;;;;5053302;28;20036;-72
2022/08/08 07:28:31;;;;;;;2.67;2.22;;;;;;;;;;5053262;28;20025;-72
2022/08/08 07:30:57;;;;;;;8.48;2.67;;;;;;;;;;5053186;28;20025;-72
2022/08/08 07:33:24;;;;;;;3.47;2.28;;;;;;;;;;5053173;28;20075;-71
2022/08/08 07:35:50;;;;;;;4.85;2.65;;;;;;;;;;5053060;28;20087;-71
2022/08/08 07:38:17;;;;;;;6.50;2.55;;;;;;;;;;5052872;28;20021;-71
2022/08/08 07:40:44;;;;;;;5.95;2.53;;;;;;;;;;5052796;28;20544;-71
2022/08/08 07:43:10;;;;;;;4.53;2.00;;;;;;;;;;5052857;28;20052;-72
2022/08/08 07:45:37;;;;;;;6.53;2.00;;;;;;;;;;5053073;28;20029;-71
2022/08/08 07:48:03;;;;;;;2.53;1.67;;;;;;;;;;5052757;28;20025;-72
2022/08/08 07:50:30;;;;;;;3.97;1.40;;;;;;;;;;5052730;28;20147;-71
2022/08/08 07:52:58;;;;;;;2.85;1.80;;;;;;;;;;5052802;28;20029;-71
2022/08/08 07:55:25;;;;;;;4.20;1.52;;;;;;;;;;5052780;28;20417;-71
2022/08/08 07:57:54;;;;;;;3.38;1.58;;;;;;;;;;5052739;28;20473;-71
2022/08/08 08:00:21;;;;;;;2.57;1.60;;;;;;;;;;5052627;28;20396;-71
2022/08/08 08:02:54;;;;;;;4.10;1.65;;;;;;;;;;5052598;28;20040;-71
2022/08/08 08:05:25;;;;;;;4.00;1.70;;;;;;;;;;5052893;28;20495;-71
2022/08/08 08:08:15;;;;;;;2.13;1.60;;;;;;;;;;5052900;28;20059;-71
2022/08/08 08:10:42;;;;;;;4.63;1.60;;;;;;;;;;5047289;28;20037;-70
2022/08/08 08:13:20;;;;;;;6.28;1.95;;;;;;;;;;5052770;28;20025;-71
2022/08/08 08:15:54;;;;;;;3.97;1.83;;;;;;;;;;5036988;28;20021;-71
2022/08/08 08:18:23;;;;;;;3.97;1.52;;;;;;;;;;5056441;28;20394;-71
2022/08/08 08:20:52;;;;;;;3.83;1.63;;;;;;;;;;5056136;28;20466;-72
2022/08/08 08:23:18;;;;;;;2.57;1.80;;;;;;;;;;5056119;28;20035;-71
2022/08/08 08:25:44;;;;;;;4.57;1.60;;;;;;;;;;5056556;28;20032;-72
2022/08/08 08:28:10;;;;;;;5.55;1.65;;;;;;;;;;5055935;28;20033;-73
2022/08/08 08:30:37;;;;;;;3.42;1.70;;;;;;;;;;5055929;28;20473;-71
2022/08/08 08:33:03;;;;;;;3.83;1.50;;;;;;;;;;5055860;28;20032;-72
2022/08/08 08:35:29;;;;;;;6.53;1.83;;;;;;;;;;5055745;28;20580;-72
2022/08/08 08:37:55;;;;;;;4.13;1.70;;;;;;;;;;5055759;28;20514;-71
2022/08/08 08:40:21;;;;;;;2.90;1.85;;;;;;;;;;5056013;28;20029;-72
2022/08/08 08:42:48;;;;;;;2.38;1.65;;;;;;;;;;5055932;28;20493;-72
2022/08/08 08:45:14;;;;;;;2.78;1.67;;;;;;;;;;5055630;28;20056;-72
2022/08/08 08:47:42;;;;;;;3.47;1.60;;;;;;;;;;5055819;28;20390;-73
2022/08/08 08:50:09;;;;;;;4.07;1.50;;;;;;;;;;5055523;28;20025;-73
2022/08/08 08:52:36;;;;;;;3.15;1.83;;;;;;;;;;5055535;28;20020;-73
2022/08/08 08:55:02;;;;;;;3.70;2.05;;;;;;;;;;5055844;28;20033;-72
2022/08/08 08:57:29;;;;;;;3.40;1.60;;;;;;;;;;5037594;28;20017;-72
2022/08/08 08:59:57;;;;;;;1.90;1.45;;;;;;;;;;5055823;28;20445;-72
2022/08/08 09:02:25;;;;;;;2.72;1.40;;;;;;;;;;5037453;28;20017;-72
2022/08/08 09:04:54;;;;;;;2.20;1.50;;;;;;;;;;5037425;28;20078;-71
2022/08/08 09:07:23;;;;;;;4.43;1.60;;;;;;;;;;5037960;28;20108;-71
2022/08/08 09:09:50;;;;;;;3.95;1.60;;;;;;;;;;5055199;28;20032;-71
2022/08/08 09:12:17;;;;;;;6.45;1.60;;;;;;;;;;5055436;28;20018;-71
2022/08/08 09:14:44;;;;;;;3.58;1.77;;;;;;;;;;5055407;28;20029;-71
2022/08/08 09:17:10;;;;;;;2.92;1.73;;;;;;;;;;5055002;28;20029;-71
2022/08/08 09:19:37;;;;;;;2.78;1.23;;;;;;;;;;5037154;28;20021;-71
2022/08/08 09:22:04;;;;;;;3.63;1.42;;;;;;;;;;5037090;28;20108;-71
2022/08/08 09:24:31;;;;;;;2.47;1.40;;;;;;;;;;5054928;28;20025;-71
2022/08/08 09:27:07;;;;;;;3.35;1.35;;;;;;;;;;5054538;28;20396;-71
2022/08/08 09:29:42;;;;;;;2.55;1.20;;;;;;;;;;5055173;28;20477;-71
2022/08/08 09:32:10;;;;;;;2.58;1.25;;;;;;;;;;5037224;28;20025;-71
2022/08/08 09:34:38;;;;;;;2.85;1.50;;;;;;;;;;5054714;28;20114;-71
2022/08/08 09:37:07;;;;;;;2.75;1.67;;;;;;;;;;5054547;28;20072;-71
2022/08/08 09:39:48;;;;;;;3.85;1.85;;;;;;;;;;5054661;28;20469;-71
2022/08/08 09:42:15;;;;;;;7.38;1.88;;;;;;;;;;5055078;28;20032;-71
2022/08/08 09:45:04;;;;;;;3.47;1.30;;;;;;;;;;5054812;28;20055;-71
2022/08/08 09:47:37;;;;;;;3.35;1.50;;;;;;;;;;5048889;28;20074;-71
2022/08/08 09:50:07;;;;;;;2.40;1.40;;;;;;;;;;5055043;28;20032;-71
2022/08/08 09:52:34;;;;;;;8.90;1.42;;;;;;;;;;5054682;28;20108;-71
2022/08/08 09:55:01;;;;;;;3.42;1.65;;;;;;;;;;5054420;28;20502;-71
2022/08/08 09:57:35;;;;;;;4.22;1.42;;;;;;;;;;5054291;28;20493;-71
2022/08/08 10:00:01;;;;;;;5.15;1.30;;;;;;;;;;5054206;28;20397;-71
2022/08/08 10:02:35;;;;;;;4.22;1.45;;;;;;;;;;5054507;28;20013;-71
2022/08/08 10:05:28;;;;;;;2.38;1.40;;;;;;;;;;5035992;28;20405;-72
2022/08/08 10:07:55;;;;;;;2.00;1.20;;;;;;;;;;5052209;28;20436;-71
2022/08/08 10:10:29;;;;;;;3.28;1.50;;;;;;;;;;5036185;28;20029;-72
2022/08/08 10:12:55;;;;;;;3.45;1.40;;;;;;;;;;5054310;28;20088;-72
2022/08/08 10:15:22;;;;;;;2.70;1.20;;;;;;;;;;5053881;28;20036;-71
2022/08/08 10:17:50;;;;;;;2.35;1.40;;;;;;;;;;5054188;28;20013;-72
2022/08/08 10:20:16;;;;;;;5.30;1.42;;;;;;;;;;5054056;28;20493;-72
2022/08/08 10:22:52;;;;;;;3.70;1.10;;;;;;;;;;5035953;28;20390;-72
2022/08/08 10:25:19;;;;;;;3.55;1.33;;;;;;;;;;5053799;28;20032;-71
2022/08/08 10:27:49;;;;;;;2.90;1.33;;;;;;;;;;5054267;28;20031;-72
2022/08/08 10:30:16;;;;;;;7.50;1.52;;;;;;;;;;5053977;28;20082;-72
2022/08/08 10:32:42;;;;;;;2.80;1.30;;;;;;;;;;5036033;28;20128;-72
2022/08/08 10:35:17;;;;;;;2.50;1.20;;;;;;;;;;5053543;28;20071;-71
2022/08/08 10:38:09;;;;;;;3.05;1.10;;;;;;;;;;5052905;28;20021;-72
2022/08/08 10:40:37;;;;;;;3.45;1.27;;;;;;;;;;5052587;28;20037;-73
2022/08/08 10:43:03;;;;;;;2.10;1.10;;;;;;;;;;5053432;28;20025;-72
2022/08/08 10:45:30;;;;;;;1.17;1.05;;;;;;;;;;5053422;28;20112;-72
2022/08/08 10:47:58;;;;;;;3.97;1.30;;;;;;;;;;5053657;28;20021;-72
2022/08/08 10:50:34;;;;;;;2.50;1.20;;;;;;;;;;5053318;28;20028;-72
2022/08/08 10:53:03;;;;;;;4.75;1.20;;;;;;;;;;5053584;28;20033;-73
2022/08/08 10:55:29;;;;;;;1.80;1.17;;;;;;;;;;5053391;28;20049;-72
2022/08/08 10:57:59;;;;;;;2.67;1.30;;;;;;;;;;5053190;28;20040;-72
2022/08/08 11:00:26;;;;;;;2.83;1.20;;;;;;;;;;5053243;28;20408;-72
2022/08/08 11:02:56;;;;;;;1.15;0.98;;;;;;;;;;5053528;28;20444;-71
2022/08/08 11:05:22;;;;;;;0.93;0.90;;;;;;;;;;5053216;28;20079;-72
2022/08/08 11:07:49;;;;;;;1.80;1.10;;;;;;;;;;5053149;28;20033;-72
2022/08/08 11:10:17;;;;;;;4.70;1.35;;;;;;;;;;5053108;28;20029;-72
2022/08/08 11:12:47;;;;;;;2.60;1.20;;;;;;;;;;5053412;28;20432;-72
2022/08/08 11:15:15;;;;;;;1.40;1.08;;;;;;;;;;5035084;28;20083;-71
2022/08/08 11:17:41;;;;;;;2.10;0.98;;;;;;;;;;5053132;28;20044;-73
2022/08/08 11:20:08;;;;;;;3.60;1.15;;;;;;;;;;5053625;28;20024;-72
2022/08/08 11:22:34;;;;;;;1.65;1.10;;;;;;;;;;5053308;28;20074;-72
2022/08/08 11:25:02;;;;;;;2.38;1.20;;;;;;;;;;5053055;28;20366;-72
2022/08/08 11:27:32;;;;;;;3.92;1.25;;;;;;;;;;5053309;28;20025;-72
2022/08/08 11:29:59;;;;;;;2.00;0.70;;;;;;;;;;5052924;28;20018;-72
2022/08/08 11:32:26;;;;;;;3.35;1.00;;;;;;;;;;5053535;28;20021;-73
2022/08/08 11:34:58;;;;;;;3.20;1.23;;;;;;;;;;5052927;28;20018;-72
2022/08/08 11:37:25;;;;;;;1.52;1.00;;;;;;;;;;5034704;28;20059;-72
2022/08/08 11:39:51;;;;;;;3.80;1.13;;;;;;;;;;5052904;28;20095;-72
2022/08/08 11:42:18;;;;;;;1.10;0.85;;;;;;;;;;5053096;28;20025;-72
2022/08/08 11:44:45;;;;;;;2.95;1.00;;;;;;;;;;5034914;28;20477;-72
2022/08/08 11:47:11;;;;;;;2.45;1.17;;;;;;;;;;5053049;28;20075;-72
2022/08/08 11:49:38;;;;;;;2.00;1.15;;;;;;;;;;5055459;28;20055;-72
2022/08/08 11:52:06;;;;;;;2.70;0.93;;;;;;;;;;5056600;28;20035;-72
2022/08/08 11:54:33;;;;;;;0.93;0.70;;;;;;;;;;5059008;28;20496;-72
2022/08/08 11:57:12;;;;;;;2.08;1.00;;;;;;;;;;5077020;28;20086;-72
2022/08/08 11:59:43;;;;;;;1.48;1.00;;;;;;;;;;5076840;28;20477;-72
2022/08/08 12:02:09;;;;;;;2.25;0.88;;;;;;;;;;5076787;28;20028;-72
2022/08/08 12:04:38;;;;;;;1.38;1.00;;;;;;;;;;5076415;28;20025;-72
2022/08/08 12:07:07;;;;;;;4.07;1.30;;;;;;;;;;5076905;28;20111;-71
2022/08/08 12:09:34;;;;;;;2.13;1.35;;;;;;;;;;5076338;28;20049;-72
2022/08/08 12:12:00;;;;;;;5.78;1.20;;;;;;;;;;5076273;28;20059;-71
2022/08/08 12:14:26;;;;;;;2.80;1.00;;;;;;;;;;5076505;28;20029;-72
2022/08/08 12:16:53;;;;;;;1.83;0.80;;;;;;;;;;5076113;28;20021;-71
2022/08/08 12:19:22;;;;;;;1.30;0.70;;;;;;;;;;5076232;28;20040;-72
2022/08/08 12:21:49;;;;;;;1.13;0.80;;;;;;;;;;5076168;28;20017;-72
2022/08/08 12:24:22;;;;;;;7.03;1.15;;;;;;;;;;5076038;28;20021;-71
2022/08/08 12:26:52;;;;;;;1.98;1.00;;;;;;;;;;5074777;28;20020;-71
2022/08/08 12:29:21;;;;;;;1.25;1.00;;;;;;;;;;5076520;28;20111;-71
2022/08/08 12:31:59;;;;;;;1.58;0.90;;;;;;;;;;5075961;28;20378;-72
2022/08/08 12:34:52;;;;;;;1.02;0.70;;;;;;;;;;5076010;28;20417;-72
2022/08/08 12:37:22;;;;;;;0.57;0.57;;;;;;;;;;5044956;28;20052;-71
2022/08/08 12:39:49;;;;;;;2.65;1.00;;;;;;;;;;5075825;28;20479;-71
2022/08/08 12:42:15;;;;;;;7.88;1.23;;;;;;;;;;5074440;28;20031;-72
2022/08/08 12:44:41;;;;;;;2.30;1.05;;;;;;;;;;5075672;28;20029;-71
2022/08/08 12:47:08;;;;;;;2.17;1.17;;;;;;;;;;5075667;28;20016;-72
2022/08/08 12:49:35;;;;;;;2.70;1.00;;;;;;;;;;5075884;28;20464;-72
2022/08/08 12:52:02;;;;;;;1.45;0.80;;;;;;;;;;5075623;28;20444;-71
2022/08/08 12:54:38;;;;;;;1.35;0.90;;;;;;;;;;5064065;28;20044;-71
2022/08/08 12:57:23;;;;;;;0.90;0.82;;;;;;;;;;5056159;28;20025;-72
2022/08/08 12:59:50;;;;;;;1.42;1.05;;;;;;;;;;5055076;28;20025;-71
2022/08/08 13:02:24;;;;;;;2.55;0.90;;;;;;;;;;5055169;28;20075;-72
2022/08/08 13:04:51;;;;;;;1.25;0.90;;;;;;;;;;5055347;28;20025;-72
2022/08/08 13:07:17;;;;;;;1.75;1.00;;;;;;;;;;5055523;28;20078;-72
2022/08/08 13:09:46;;;;;;;1.98;1.15;;;;;;;;;;5055206;28;20025;-72
2022/08/08 13:12:14;;;;;;;1.88;1.00;;;;;;;;;;5055224;28;20024;-71
2022/08/08 13:15:01;;;;;;;2.50;1.00;;;;;;;;;;5055405;28;20029;-72
2022/08/08 13:17:29;;;;;;;1.48;1.02;;;;;;;;;;5055433;28;20473;-72
2022/08/08 13:19:55;;;;;;;1.13;0.70;;;;;;;;;;5055316;28;20021;-72
2022/08/08 13:22:21;;;;;;;2.03;1.20;;;;;;;;;;5055020;28;20523;-72
2022/08/08 13:24:48;;;;;;;1.08;0.98;;;;;;;;;;5054984;28;20074;-72
2022/08/08 13:27:18;;;;;;;3.92;0.90;;;;;;;;;;5054928;28;20029;-72
2022/08/08 13:29:51;;;;;;;2.83;1.13;;;;;;;;;;5055148;28;20029;-71
2022/08/08 13:32:18;;;;;;;2.00;1.08;;;;;;;;;;5055134;28;20029;-72
2022/08/08 13:34:47;;;;;;;2.33;1.00;;;;;;;;;;5055267;28;20037;-72
2022/08/08 13:37:15;;;;;;;1.85;1.10;;;;;;;;;;5054621;28;20115;-72
2022/08/08 13:39:41;;;;;;;1.55;1.15;;;;;;;;;;5054659;28;20021;-72
2022/08/08 13:42:07;;;;;;;1.67;0.90;;;;;;;;;;5054532;28;20026;-72
2022/08/08 13:44:34;;;;;;;2.08;1.15;;;;;;;;;;5054802;28;20167;-72
2022/08/08 13:47:01;;;;;;;2.70;1.20;;;;;;;;;;5054760;28;20036;-72
2022/08/08 13:49:29;;;;;;;1.83;1.15;;;;;;;;;;5054474;28;20082;-71
2022/08/08 13:52:00;;;;;;;4.25;1.17;;;;;;;;;;5036523;28;20060;-72
2022/08/08 13:54:26;;;;;;;1.73;1.00;;;;;;;;;;5054903;28;20106;-72
2022/08/08 13:57:03;;;;;;;1.52;1.15;;;;;;;;;;5073460;28;20033;-71
2022/08/08 13:59:29;;;;;;;1.80;1.00;;;;;;;;;;5074496;28;20558;-72
2022/08/08 14:01:55;;;;;;;4.68;0.93;;;;;;;;;;5074381;28;20056;-72
2022/08/08 14:04:22;;;;;;;2.60;1.13;;;;;;;;;;5074693;28;20036;-72
2022/08/08 14:06:48;;;;;;;2.10;0.90;;;;;;;;;;5074120;28;20059;-72
2022/08/08 14:09:14;;;;;;;3.72;1.42;;;;;;;;;;5072683;28;20445;-72
2022/08/08 14:11:40;;;;;;;3.13;0.90;;;;;;;;;;5073217;28;20077;-71
2022/08/08 14:14:06;;;;;;;3.90;0.95;;;;;;;;;;5073631;28;20490;-72
2022/08/08 14:16:33;;;;;;;1.88;1.10;;;;;;;;;;5073822;28;20109;-71
2022/08/08 14:19:01;;;;;;;3.70;0.98;;;;;;;;;;5072334;28;20017;-73
2022/08/08 14:21:39;;;;;;;1.48;1.05;;;;;;;;;;5073841;28;20099;-72
2022/08/08 14:24:05;;;;;;;1.90;1.00;;;;;;;;;;5073828;28;20024;-71
2022/08/08 14:26:32;;;;;;;1.50;1.08;;;;;;;;;;5073767;28;20028;-71
2022/08/08 14:28:58;;;;;;;3.70;1.00;;;;;;;;;;5073658;28;20107;-72
2022/08/08 14:31:25;;;;;;;1.52;1.08;;;;;;;;;;5073697;28;20488;-71
2022/08/08 14:33:52;;;;;;;2.45;0.80;;;;;;;;;;5073891;28;20078;-71
2022/08/08 14:36:30;;;;;;;1.90;0.90;;;;;;;;;;5073784;28;20025;-71
2022/08/08 14:38:58;;;;;;;2.30;1.02;;;;;;;;;;5073651;28;20070;-71
2022/08/08 14:41:24;;;;;;;2.10;1.13;;;;;;;;;;5073554;28;20028;-71
2022/08/08 14:43:52;;;;;;;3.47;1.00;;;;;;;;;;5073787;28;20024;-72
2022/08/08 14:46:28;;;;;;;3.45;0.98;;;;;;;;;;5073452;28;20028;-72
2022/08/08 14:49:01;;;;;;;1.52;0.90;;;;;;;;;;5073717;28;20157;-72
2022/08/08 14:51:27;;;;;;;4.90;1.00;;;;;;;;;;5074002;28;20103;-71
2022/08/08 14:53:55;;;;;;;2.58;1.00;;;;;;;;;;5066639;28;20409;-72
2022/08/08 14:56:22;;;;;;;3.28;0.95;;;;;;;;;;5053767;28;20028;-72
2022/08/08 14:58:48;;;;;;;1.13;1.02;;;;;;;;;;5053290;28;20489;-72
2022/08/08 15:01:14;;;;;;;2.33;1.00;;;;;;;;;;5035345;28;20063;-72
2022/08/08 15:03:40;;;;;;;2.65;1.10;;;;;;;;;;5053561;28;20052;-72
2022/08/08 15:06:06;;;;;;;2.45;0.95;;;;;;;;;;5053228;28;20036;-72